createdAt,value
2019-05-01T00:00:59.941Z,0.00
2019-05-01T00:01:59.942Z,0.00
2019-05-01T00:02:59.925Z,0.00
2019-05-01T00:03:59.913Z,0.00
2019-05-01T00:04:59.894Z,0.00
2019-05-01T00:05:59.898Z,0.00
2019-05-01T00:06:59.919Z,0.00
2019-05-01T00:07:59.863Z,0.00
2019-05-01T00:08:59.850Z,0.00
2019-05-01T00:09:59.845Z,0.00
2019-05-01T00:10:59.830Z,0.00
2019-05-01T00:11:59.849Z,0.00
2019-05-01T00:12:59.970Z,0.00
2019-05-01T00:13:59.879Z,0.00
2019-05-01T00:14:59.786Z,0.00
2019-05-01T00:15:59.797Z,0.00
2019-05-01T00:16:59.800Z,0.00
2019-05-01T00:17:59.784Z,0.00
2019-05-01T00:18:59.788Z,0.00
2019-05-01T00:19:59.733Z,0.00
2019-05-01T00:20:59.723Z,0.00
2019-05-01T00:21:59.742Z,0.00
2019-05-01T00:22:59.701Z,0.00
2019-05-01T00:23:59.698Z,0.00
2019-05-01T00:24:59.725Z,0.00
2019-05-01T00:25:59.668Z,0.00
2019-05-01T00:26:59.686Z,0.00
2019-05-01T00:27:59.650Z,0.00
2019-05-01T00:28:59.674Z,0.00
2019-05-01T00:29:59.659Z,0.00
2019-05-01T00:30:59.700Z,0.00
2019-05-01T00:31:59.694Z,0.00
2019-05-01T00:32:59.613Z,0.00
2019-05-01T00:33:59.587Z,0.00
2019-05-01T00:34:59.599Z,0.00
2019-05-01T00:35:59.561Z,0.00
2019-05-01T00:36:59.551Z,0.00
2019-05-01T00:37:59.579Z,0.00
2019-05-01T00:38:59.546Z,0.00
2019-05-01T00:39:59.520Z,0.00
2019-05-01T00:40:59.510Z,0.00
2019-05-01T00:41:59.499Z,0.00
2019-05-01T00:42:59.506Z,0.00
2019-05-01T00:43:59.475Z,0.00
2019-05-01T00:44:59.483Z,0.00
2019-05-01T00:45:59.469Z,0.00
2019-05-01T00:46:59.450Z,0.00
2019-05-01T00:47:59.450Z,0.00
2019-05-01T00:48:59.425Z,0.00
2019-05-01T00:49:59.416Z,0.00
2019-05-01T00:50:59.462Z,0.00
2019-05-01T00:51:59.390Z,0.00
2019-05-01T00:52:59.396Z,0.00
2019-05-01T00:53:59.392Z,0.00
2019-05-01T00:54:59.375Z,0.00
2019-05-01T00:55:59.348Z,0.00
2019-05-01T00:56:59.336Z,0.00
2019-05-01T00:57:59.355Z,0.00
2019-05-01T00:58:59.332Z,0.00
2019-05-01T00:59:59.327Z,0.00
2019-05-01T01:00:59.293Z,0.00
2019-05-01T01:01:59.283Z,0.00
2019-05-01T01:02:59.314Z,0.00
2019-05-01T01:03:59.286Z,0.00
2019-05-01T01:04:59.253Z,0.00
2019-05-01T01:05:59.246Z,0.00
2019-05-01T01:06:59.250Z,0.00
2019-05-01T01:07:59.234Z,0.00
2019-05-01T01:08:59.249Z,0.00
2019-05-01T01:09:59.197Z,0.00
2019-05-01T01:10:59.187Z,0.00
2019-05-01T01:11:59.176Z,0.00
2019-05-01T01:12:59.179Z,0.00
2019-05-01T01:13:59.156Z,0.00
2019-05-01T01:14:59.168Z,0.00
2019-05-01T01:15:59.151Z,0.00
2019-05-01T01:16:59.141Z,0.00
2019-05-01T01:17:59.152Z,0.00
2019-05-01T01:18:59.103Z,0.00
2019-05-01T01:19:59.113Z,0.00
2019-05-01T01:20:59.080Z,0.00
2019-05-01T01:21:59.072Z,0.00
2019-05-01T01:22:59.064Z,0.00
2019-05-01T01:23:59.090Z,0.00
2019-05-01T01:24:59.047Z,0.00
2019-05-01T01:25:59.037Z,0.00
2019-05-01T01:26:59.016Z,0.00
2019-05-01T01:27:59.006Z,0.00
2019-05-01T01:28:59.005Z,0.00
2019-05-01T01:29:58.996Z,0.00
2019-05-01T01:30:59.005Z,0.00
2019-05-01T01:31:58.964Z,0.00
2019-05-01T01:32:58.959Z,0.00
2019-05-01T01:33:58.952Z,0.00
2019-05-01T01:34:58.932Z,0.00
2019-05-01T01:35:58.924Z,0.00
2019-05-01T01:36:58.948Z,0.00
2019-05-01T01:37:58.908Z,0.00
2019-05-01T01:38:58.899Z,0.00
2019-05-01T01:39:58.879Z,0.00
2019-05-01T01:40:58.889Z,0.00
2019-05-01T01:41:58.902Z,0.00
2019-05-01T01:42:58.904Z,0.00
2019-05-01T01:43:58.848Z,0.00
2019-05-01T01:44:58.833Z,0.00
2019-05-01T01:45:58.843Z,0.00
2019-05-01T01:46:58.803Z,0.00
2019-05-01T01:47:58.807Z,0.00
2019-05-01T01:48:58.811Z,0.00
2019-05-01T01:49:58.772Z,0.00
2019-05-01T01:50:58.761Z,0.00
2019-05-01T01:51:58.752Z,0.00
2019-05-01T01:52:58.737Z,0.00
2019-05-01T01:53:58.739Z,0.00
2019-05-01T01:54:58.758Z,0.00
2019-05-01T01:55:58.810Z,0.00
2019-05-01T01:56:58.697Z,0.00
2019-05-01T01:57:58.686Z,0.00
2019-05-01T01:58:58.687Z,0.00
2019-05-01T01:59:58.663Z,0.00
2019-05-01T02:01:08.941Z,0.00
2019-05-01T02:01:59.671Z,0.00
2019-05-01T02:02:58.631Z,0.00
2019-05-01T02:03:58.634Z,0.00
2019-05-01T02:04:58.612Z,0.00
2019-05-01T02:05:58.618Z,0.00
2019-05-01T02:06:58.589Z,0.00
2019-05-01T02:07:58.635Z,0.00
2019-05-01T02:08:58.583Z,0.00
2019-05-01T02:09:58.560Z,0.00
2019-05-01T02:10:58.550Z,0.00
2019-05-01T02:11:58.563Z,0.00
2019-05-01T02:12:58.525Z,0.00
2019-05-01T02:13:58.565Z,0.00
2019-05-01T02:14:58.539Z,0.00
2019-05-01T02:15:58.493Z,0.00
2019-05-01T02:16:58.483Z,0.00
2019-05-01T02:17:58.485Z,0.00
2019-05-01T02:18:58.480Z,0.00
2019-05-01T02:19:58.452Z,0.00
2019-05-01T02:20:58.459Z,0.00
2019-05-01T02:21:58.469Z,0.00
2019-05-01T02:22:58.469Z,0.00
2019-05-01T02:23:58.407Z,0.00
2019-05-01T02:24:58.411Z,0.00
2019-05-01T02:25:58.387Z,0.00
2019-05-01T02:26:58.373Z,0.00
2019-05-01T02:27:58.364Z,0.00
2019-05-01T02:28:58.383Z,0.00
2019-05-01T02:29:58.352Z,0.00
2019-05-01T02:30:58.344Z,0.00
2019-05-01T02:31:58.342Z,0.00
2019-05-01T02:32:58.317Z,0.00
2019-05-01T02:33:58.314Z,0.00
2019-05-01T02:34:58.323Z,0.00
2019-05-01T02:35:58.285Z,0.00
2019-05-01T02:36:58.270Z,0.00
2019-05-01T02:37:58.265Z,0.00
2019-05-01T02:38:58.254Z,0.00
2019-05-01T02:39:58.260Z,0.00
2019-05-01T02:40:58.226Z,0.00
2019-05-01T02:41:58.230Z,0.00
2019-05-01T02:42:58.209Z,0.00
2019-05-01T02:43:58.194Z,0.00
2019-05-01T02:44:58.196Z,0.00
2019-05-01T02:45:58.233Z,0.00
2019-05-01T02:46:58.160Z,0.00
2019-05-01T02:47:58.222Z,0.00
2019-05-01T02:48:58.172Z,0.00
2019-05-01T02:49:58.138Z,0.00
2019-05-01T02:50:58.116Z,0.00
2019-05-01T02:51:58.107Z,0.00
2019-05-01T02:52:58.096Z,0.00
2019-05-01T02:53:58.113Z,0.00
2019-05-01T02:54:58.098Z,0.00
2019-05-01T02:55:58.068Z,0.00
2019-05-01T02:56:58.063Z,0.00
2019-05-01T02:57:58.042Z,0.00
2019-05-01T02:58:58.033Z,0.00
2019-05-01T02:59:58.111Z,0.00
2019-05-01T03:00:58.013Z,0.00
2019-05-01T03:01:58.001Z,0.00
2019-05-01T03:02:58.007Z,0.00
2019-05-01T03:03:57.993Z,0.00
2019-05-01T03:04:57.978Z,0.00
2019-05-01T03:05:57.981Z,0.00
2019-05-01T03:06:57.946Z,0.00
2019-05-01T03:07:57.940Z,0.00
2019-05-01T03:08:57.945Z,0.00
2019-05-01T03:09:57.968Z,0.00
2019-05-01T03:10:57.910Z,0.00
2019-05-01T03:11:57.891Z,0.00
2019-05-01T03:12:57.895Z,0.00
2019-05-01T03:13:57.894Z,0.00
2019-05-01T03:14:57.861Z,0.00
2019-05-01T03:15:57.865Z,0.00
2019-05-01T03:16:57.856Z,0.00
2019-05-01T03:17:57.828Z,0.00
2019-05-01T03:18:57.816Z,0.00
2019-05-01T03:19:57.869Z,0.00
2019-05-01T03:20:57.824Z,0.00
2019-05-01T03:21:57.783Z,0.00
2019-05-01T03:22:57.828Z,0.00
2019-05-01T03:23:57.773Z,0.00
2019-05-01T03:24:57.755Z,0.00
2019-05-01T03:25:57.768Z,0.00
2019-05-01T03:26:57.730Z,0.00
2019-05-01T03:27:57.718Z,0.00
2019-05-01T03:28:57.709Z,0.00
2019-05-01T03:29:57.707Z,0.00
2019-05-01T03:30:57.700Z,0.00
2019-05-01T03:32:15.202Z,0.00
2019-05-01T03:32:58.668Z,0.00
2019-05-01T03:33:57.656Z,0.00
2019-05-01T03:34:57.650Z,0.00
2019-05-01T03:35:57.643Z,0.00
2019-05-01T03:36:57.624Z,0.00
2019-05-01T03:37:57.664Z,0.00
2019-05-01T03:38:57.608Z,0.00
2019-05-01T03:39:57.591Z,0.00
2019-05-01T03:40:57.595Z,0.00
2019-05-01T03:41:57.569Z,0.00
2019-05-01T03:42:57.559Z,0.00
2019-05-01T03:43:57.567Z,0.00
2019-05-01T03:44:57.537Z,0.00
2019-05-01T03:45:57.553Z,0.00
2019-05-01T03:46:57.518Z,0.00
2019-05-01T03:47:57.506Z,0.00
2019-05-01T03:48:57.504Z,0.00
2019-05-01T03:49:57.552Z,0.00
2019-05-01T03:50:57.497Z,0.00
2019-05-01T03:51:57.481Z,0.00
2019-05-01T03:52:57.459Z,0.00
2019-05-01T03:53:57.442Z,0.00
2019-05-01T03:54:57.472Z,0.00
2019-05-01T03:55:57.423Z,0.00
2019-05-01T03:56:57.430Z,0.00
2019-05-01T03:57:57.401Z,0.00
2019-05-01T03:58:57.389Z,0.00
2019-05-01T03:59:57.384Z,0.00
2019-05-01T04:00:57.369Z,5.62
2019-05-01T04:01:57.404Z,5.62
2019-05-01T04:02:57.388Z,5.62
2019-05-01T04:03:57.347Z,5.62
2019-05-01T04:04:57.374Z,5.62
2019-05-01T04:05:57.311Z,5.62
2019-05-01T04:06:57.312Z,11.25
2019-05-01T04:07:57.290Z,11.25
2019-05-01T04:08:57.281Z,11.25
2019-05-01T04:09:57.331Z,11.25
2019-05-01T04:10:57.275Z,11.25
2019-05-01T04:11:57.262Z,16.88
2019-05-01T04:12:57.254Z,16.88
2019-05-01T04:13:57.229Z,16.88
2019-05-01T04:14:57.218Z,22.50
2019-05-01T04:15:57.250Z,22.50
2019-05-01T04:16:57.215Z,22.50
2019-05-01T04:17:57.185Z,28.12
2019-05-01T04:18:57.185Z,28.12
2019-05-01T04:19:57.169Z,33.75
2019-05-01T04:20:57.178Z,33.75
2019-05-01T04:21:57.181Z,33.75
2019-05-01T04:22:57.197Z,39.38
2019-05-01T04:23:57.125Z,39.38
2019-05-01T04:24:57.108Z,45.00
2019-05-01T04:25:57.112Z,45.00
2019-05-01T04:26:57.100Z,50.62
2019-05-01T04:27:58.929Z,50.62
2019-05-01T04:28:57.084Z,56.25
2019-05-01T04:29:57.118Z,56.25
2019-05-01T04:30:57.056Z,61.88
2019-05-01T04:31:57.048Z,61.88
2019-05-01T04:32:57.057Z,67.50
2019-05-01T04:33:57.025Z,67.50
2019-05-01T04:34:57.010Z,73.12
2019-05-01T04:35:56.992Z,73.12
2019-05-01T04:36:57.022Z,78.75
2019-05-01T04:37:56.970Z,84.38
2019-05-01T04:38:56.972Z,84.38
2019-05-01T04:39:57.061Z,90.00
2019-05-01T04:40:56.949Z,90.00
2019-05-01T04:41:56.946Z,95.62
2019-05-01T04:42:56.915Z,95.62
2019-05-01T04:43:56.909Z,101.25
2019-05-01T04:44:56.908Z,101.25
2019-05-01T04:45:56.928Z,106.88
2019-05-01T04:46:56.898Z,112.50
2019-05-01T04:47:56.868Z,112.50
2019-05-01T04:48:56.856Z,118.12
2019-05-01T04:49:56.847Z,118.12
2019-05-01T04:50:56.842Z,118.12
2019-05-01T04:51:56.832Z,123.75
2019-05-01T04:52:56.816Z,123.75
2019-05-01T04:53:56.814Z,129.38
2019-05-01T04:54:56.813Z,129.38
2019-05-01T04:55:56.800Z,135.00
2019-05-01T04:56:56.766Z,140.62
2019-05-01T04:57:56.794Z,140.62
2019-05-01T04:58:56.779Z,146.25
2019-05-01T04:59:56.806Z,151.88
2019-05-01T05:00:56.728Z,151.88
2019-05-01T05:01:57.572Z,157.50
2019-05-01T05:03:04.560Z,163.12
2019-05-01T05:03:57.709Z,168.75
2019-05-01T05:04:56.710Z,168.75
2019-05-01T05:05:56.777Z,174.38
2019-05-01T05:06:56.674Z,180.00
2019-05-01T05:07:56.655Z,180.00
2019-05-01T05:08:56.648Z,185.62
2019-05-01T05:09:56.627Z,185.62
2019-05-01T05:10:56.642Z,191.25
2019-05-01T05:11:56.627Z,191.25
2019-05-01T05:12:56.661Z,191.25
2019-05-01T05:13:56.581Z,196.88
2019-05-01T05:14:56.571Z,202.50
2019-05-01T05:15:56.562Z,202.50
2019-05-01T05:16:56.566Z,208.12
2019-05-01T05:17:56.564Z,213.75
2019-05-01T05:18:56.531Z,213.75
2019-05-01T05:19:56.608Z,219.38
2019-05-01T05:20:56.516Z,225.00
2019-05-01T05:21:56.569Z,225.00
2019-05-01T05:22:56.549Z,230.62
2019-05-01T05:23:56.473Z,236.25
2019-05-01T05:24:56.471Z,236.25
2019-05-01T05:25:56.478Z,241.88
2019-05-01T05:26:56.505Z,191.25
2019-05-01T05:27:56.503Z,196.88
2019-05-01T05:28:56.509Z,202.50
2019-05-01T05:29:56.459Z,208.12
2019-05-01T05:30:56.452Z,213.75
2019-05-01T05:31:56.437Z,213.75
2019-05-01T05:32:56.383Z,219.38
2019-05-01T05:33:56.419Z,219.38
2019-05-01T05:34:56.367Z,219.38
2019-05-01T05:35:56.348Z,219.38
2019-05-01T05:36:56.335Z,230.62
2019-05-01T05:37:56.331Z,230.62
2019-05-01T05:38:56.351Z,241.88
2019-05-01T05:39:56.356Z,241.88
2019-05-01T05:40:56.297Z,241.88
2019-05-01T05:41:56.282Z,258.75
2019-05-01T05:42:56.286Z,247.50
2019-05-01T05:43:56.271Z,309.38
2019-05-01T05:44:56.263Z,309.38
2019-05-01T05:45:56.264Z,315.00
2019-05-01T05:46:56.225Z,315.00
2019-05-01T05:47:56.216Z,320.62
2019-05-01T05:48:56.212Z,331.88
2019-05-01T05:49:56.192Z,331.88
2019-05-01T05:50:56.191Z,331.88
2019-05-01T05:51:56.186Z,337.50
2019-05-01T05:52:56.172Z,337.50
2019-05-01T05:53:56.160Z,337.50
2019-05-01T05:54:56.140Z,343.12
2019-05-01T05:55:56.143Z,348.75
2019-05-01T05:56:56.129Z,348.75
2019-05-01T05:57:56.122Z,348.75
2019-05-01T05:58:56.120Z,354.38
2019-05-01T05:59:56.097Z,405.00
2019-05-01T06:00:56.087Z,500.62
2019-05-01T06:01:56.064Z,658.12
2019-05-01T06:02:56.052Z,686.25
2019-05-01T06:03:56.062Z,708.75
2019-05-01T06:04:56.034Z,725.62
2019-05-01T06:05:56.028Z,736.88
2019-05-01T06:06:56.021Z,742.50
2019-05-01T06:07:56.008Z,748.12
2019-05-01T06:08:55.990Z,753.75
2019-05-01T06:09:55.990Z,770.62
2019-05-01T06:10:58.679Z,765.00
2019-05-01T06:11:55.956Z,776.25
2019-05-01T06:12:55.947Z,798.75
2019-05-01T06:13:57.072Z,810.00
2019-05-01T06:14:55.937Z,793.12
2019-05-01T06:15:55.914Z,804.38
2019-05-01T06:16:55.899Z,776.25
2019-05-01T06:17:59.211Z,810.00
2019-05-01T06:18:56.883Z,804.38
2019-05-01T06:19:55.901Z,703.12
2019-05-01T06:20:57.090Z,523.12
2019-05-01T06:21:56.860Z,596.25
2019-05-01T06:22:55.891Z,804.38
2019-05-01T06:23:57.823Z,849.38
2019-05-01T06:24:56.827Z,871.88
2019-05-01T06:25:59.948Z,888.75
2019-05-01T06:26:56.813Z,916.88
2019-05-01T06:27:55.781Z,855.00
2019-05-01T06:29:00.211Z,624.38
2019-05-01T06:29:55.767Z,573.75
2019-05-01T06:30:55.766Z,894.38
2019-05-01T06:31:58.800Z,1080.00
2019-05-01T06:32:55.743Z,1074.38
2019-05-01T06:33:55.739Z,1046.25
2019-05-01T06:34:58.554Z,984.38
2019-05-01T06:35:56.700Z,956.25
2019-05-01T06:36:55.708Z,933.75
2019-05-01T06:37:55.887Z,815.62
2019-05-01T06:38:55.678Z,624.38
2019-05-01T06:39:55.661Z,483.75
2019-05-01T06:40:58.053Z,461.25
2019-05-01T06:41:55.627Z,461.25
2019-05-01T06:42:55.618Z,472.50
2019-05-01T06:43:57.160Z,472.50
2019-05-01T06:44:56.647Z,478.12
2019-05-01T06:45:55.584Z,478.12
2019-05-01T06:46:58.252Z,478.12
2019-05-01T06:47:56.681Z,483.75
2019-05-01T06:48:55.579Z,483.75
2019-05-01T06:49:55.563Z,483.75
2019-05-01T06:50:55.547Z,489.38
2019-05-01T06:51:55.520Z,489.38
2019-05-01T06:52:55.512Z,495.00
2019-05-01T06:53:55.543Z,495.00
2019-05-01T06:54:55.571Z,500.62
2019-05-01T06:55:55.474Z,500.62
2019-05-01T06:56:55.465Z,500.62
2019-05-01T06:57:55.472Z,506.25
2019-05-01T06:58:56.405Z,506.25
2019-05-01T06:59:55.438Z,511.88
2019-05-01T07:00:55.448Z,511.88
2019-05-01T07:01:58.346Z,517.50
2019-05-01T07:02:55.483Z,523.12
2019-05-01T07:04:03.502Z,528.75
2019-05-01T07:04:56.389Z,534.38
2019-05-01T07:05:56.294Z,540.00
2019-05-01T07:06:55.353Z,556.88
2019-05-01T07:07:55.343Z,675.00
2019-05-01T07:08:55.331Z,1057.50
2019-05-01T07:09:55.339Z,1299.38
2019-05-01T07:10:55.342Z,1293.75
2019-05-01T07:11:55.334Z,1288.12
2019-05-01T07:12:55.292Z,1333.12
2019-05-01T07:13:55.885Z,1366.88
2019-05-01T07:14:55.267Z,1406.25
2019-05-01T07:15:58.773Z,1445.62
2019-05-01T07:16:56.244Z,1479.38
2019-05-01T07:17:55.272Z,1490.62
2019-05-01T07:18:58.022Z,1507.50
2019-05-01T07:19:56.233Z,1546.88
2019-05-01T07:20:55.232Z,1580.62
2019-05-01T07:21:55.192Z,1597.50
2019-05-01T07:22:55.182Z,1614.38
2019-05-01T07:23:55.255Z,1642.50
2019-05-01T07:24:58.919Z,1676.25
2019-05-01T07:25:56.166Z,1738.12
2019-05-01T07:26:55.150Z,1783.12
2019-05-01T07:27:58.486Z,1828.12
2019-05-01T07:28:55.167Z,1845.00
2019-05-01T07:29:55.108Z,1845.00
2019-05-01T07:30:56.089Z,1743.75
2019-05-01T07:31:55.084Z,1659.38
2019-05-01T07:32:55.079Z,1366.88
2019-05-01T07:33:55.093Z,1265.62
2019-05-01T07:34:56.958Z,1608.75
2019-05-01T07:35:56.056Z,1991.25
2019-05-01T07:36:55.025Z,2030.62
2019-05-01T07:37:57.657Z,2070.00
2019-05-01T07:38:55.017Z,2092.50
2019-05-01T07:39:55.027Z,2255.62
2019-05-01T07:40:58.753Z,1951.88
2019-05-01T07:41:55.980Z,1192.50
2019-05-01T07:42:54.961Z,961.88
2019-05-01T07:43:59.209Z,770.62
2019-05-01T07:44:54.959Z,714.38
2019-05-01T07:45:54.927Z,793.12
2019-05-01T07:46:56.148Z,838.12
2019-05-01T07:47:54.906Z,832.50
2019-05-01T07:48:54.897Z,832.50
2019-05-01T07:49:55.005Z,815.62
2019-05-01T07:50:54.923Z,810.00
2019-05-01T07:51:54.872Z,810.00
2019-05-01T07:52:54.847Z,849.38
2019-05-01T07:53:59.045Z,922.50
2019-05-01T07:54:55.827Z,945.00
2019-05-01T07:55:54.820Z,967.50
2019-05-01T07:56:58.737Z,950.62
2019-05-01T07:57:55.807Z,939.38
2019-05-01T07:58:54.790Z,984.38
2019-05-01T07:59:58.242Z,1018.12
2019-05-01T08:00:55.762Z,1029.38
2019-05-01T08:01:55.711Z,1074.38
2019-05-01T08:02:54.768Z,1125.00
2019-05-01T08:03:54.750Z,1203.75
2019-05-01T08:04:54.729Z,1333.12
2019-05-01T08:05:54.750Z,1485.00
2019-05-01T08:06:57.060Z,1580.62
2019-05-01T08:07:54.728Z,1693.12
2019-05-01T08:08:54.704Z,1659.38
2019-05-01T08:09:54.683Z,1192.50
2019-05-01T08:10:54.654Z,753.75
2019-05-01T08:11:54.654Z,646.88
2019-05-01T08:12:55.570Z,635.62
2019-05-01T08:14:07.070Z,624.38
2019-05-01T08:14:55.633Z,618.75
2019-05-01T08:15:54.633Z,613.12
2019-05-01T08:16:54.607Z,607.50
2019-05-01T08:17:54.578Z,607.50
2019-05-01T08:18:54.570Z,601.88
2019-05-01T08:19:54.595Z,601.88
2019-05-01T08:20:54.542Z,601.88
2019-05-01T08:21:57.056Z,601.88
2019-05-01T08:22:55.578Z,601.88
2019-05-01T08:23:54.557Z,607.50
2019-05-01T08:24:58.812Z,607.50
2019-05-01T08:25:55.546Z,607.50
2019-05-01T08:26:54.514Z,607.50
2019-05-01T08:27:56.192Z,607.50
2019-05-01T08:28:54.454Z,613.12
2019-05-01T08:29:54.444Z,607.50
2019-05-01T08:30:54.437Z,607.50
2019-05-01T08:31:54.432Z,607.50
2019-05-01T08:32:54.421Z,607.50
2019-05-01T08:33:54.416Z,607.50
2019-05-01T08:34:55.731Z,607.50
2019-05-01T08:35:55.381Z,607.50
2019-05-01T08:36:54.425Z,607.50
2019-05-01T08:37:58.434Z,613.12
2019-05-01T08:38:55.350Z,613.12
2019-05-01T08:39:54.367Z,613.12
2019-05-01T08:40:55.422Z,613.12
2019-05-01T08:41:54.332Z,613.12
2019-05-01T08:42:54.303Z,618.75
2019-05-01T08:43:55.896Z,618.75
2019-05-01T08:44:54.283Z,618.75
2019-05-01T08:45:54.291Z,618.75
2019-05-01T08:46:54.282Z,624.38
2019-05-01T08:47:56.750Z,624.38
2019-05-01T08:48:55.239Z,624.38
2019-05-01T08:49:54.231Z,630.00
2019-05-01T08:50:54.613Z,630.00
2019-05-01T08:51:54.253Z,630.00
2019-05-01T08:52:54.218Z,630.00
2019-05-01T08:53:57.850Z,635.62
2019-05-01T08:54:55.175Z,635.62
2019-05-01T08:55:54.159Z,641.25
2019-05-01T08:56:58.228Z,641.25
2019-05-01T08:57:55.166Z,646.88
2019-05-01T08:58:54.126Z,652.50
2019-05-01T08:59:55.810Z,652.50
2019-05-01T09:00:55.104Z,658.12
2019-05-01T09:02:08.562Z,669.38
2019-05-01T09:03:07.367Z,675.00
2019-05-01T09:03:55.697Z,691.88
2019-05-01T09:05:02.078Z,736.88
2019-05-01T09:05:57.523Z,978.75
2019-05-01T09:06:54.041Z,950.62
2019-05-01T09:07:55.923Z,950.62
2019-05-01T09:08:54.020Z,939.38
2019-05-01T09:09:54.076Z,1102.50
2019-05-01T09:10:54.691Z,1181.25
2019-05-01T09:11:54.985Z,1237.50
2019-05-01T09:12:54.003Z,1704.38
2019-05-01T09:13:54.669Z,1473.75
2019-05-01T09:14:53.951Z,2182.50
2019-05-01T09:15:53.948Z,2036.25
2019-05-01T09:16:53.955Z,1378.12
2019-05-01T09:17:53.931Z,1006.88
2019-05-01T09:18:53.914Z,961.88
2019-05-01T09:19:53.902Z,1175.62
2019-05-01T09:20:53.891Z,995.62
2019-05-01T09:21:53.879Z,1192.50
2019-05-01T09:22:53.917Z,1338.75
2019-05-01T09:23:53.862Z,1164.38
2019-05-01T09:24:53.845Z,1327.50
2019-05-01T09:25:53.836Z,1113.75
2019-05-01T09:26:53.828Z,1158.75
2019-05-01T09:27:53.825Z,1080.00
2019-05-01T09:28:53.832Z,1164.38
2019-05-01T09:29:53.807Z,1417.50
2019-05-01T09:31:01.555Z,1653.75
2019-05-01T09:31:54.769Z,2030.62
2019-05-01T09:32:55.254Z,2064.38
2019-05-01T09:33:53.763Z,1411.88
2019-05-01T09:34:53.797Z,1411.88
2019-05-01T09:35:53.730Z,2458.12
2019-05-01T09:36:53.721Z,2992.50
2019-05-01T09:37:53.734Z,2998.12
2019-05-01T09:38:53.696Z,2975.62
2019-05-01T09:39:53.684Z,3037.50
2019-05-01T09:40:53.730Z,3048.75
2019-05-01T09:41:53.698Z,3003.75
2019-05-01T09:42:54.600Z,2930.62
2019-05-01T09:43:54.645Z,2998.12
2019-05-01T09:44:53.630Z,3037.50
2019-05-01T09:45:53.650Z,2694.38
2019-05-01T09:46:53.676Z,1620.00
2019-05-01T09:47:53.629Z,1665.00
2019-05-01T09:48:53.618Z,2745.00
2019-05-01T09:49:55.626Z,3003.75
2019-05-01T09:50:53.568Z,2975.62
2019-05-01T09:51:53.558Z,2970.00
2019-05-01T09:52:55.117Z,2975.62
2019-05-01T09:53:54.547Z,2953.12
2019-05-01T09:54:53.541Z,2981.25
2019-05-01T09:55:53.582Z,3071.25
2019-05-01T09:56:53.506Z,2621.25
2019-05-01T09:57:53.495Z,1524.38
2019-05-01T09:58:53.494Z,2199.38
2019-05-01T09:59:53.525Z,3088.12
2019-05-01T10:00:53.976Z,3127.50
2019-05-01T10:01:53.454Z,3093.75
2019-05-01T10:02:54.764Z,3161.25
2019-05-01T10:03:54.512Z,3183.75
2019-05-01T10:04:53.420Z,3166.88
2019-05-01T10:05:53.445Z,3088.12
2019-05-01T10:06:54.139Z,2311.88
2019-05-01T10:07:53.386Z,1653.75
2019-05-01T10:08:53.389Z,2733.75
2019-05-01T10:09:53.999Z,3301.88
2019-05-01T10:10:53.359Z,3105.00
2019-05-01T10:11:53.353Z,3015.00
2019-05-01T10:12:53.401Z,3088.12
2019-05-01T10:13:53.770Z,3105.00
2019-05-01T10:14:53.338Z,2373.75
2019-05-01T10:15:53.309Z,1715.62
2019-05-01T10:16:53.300Z,2767.50
2019-05-01T10:17:53.283Z,3048.75
2019-05-01T10:18:53.305Z,3172.50
2019-05-01T10:19:53.291Z,3335.62
2019-05-01T10:20:53.255Z,2671.88
2019-05-01T10:21:53.244Z,1693.12
2019-05-01T10:22:53.291Z,1659.38
2019-05-01T10:23:53.350Z,1636.88
2019-05-01T10:24:53.214Z,1299.38
2019-05-01T10:25:53.199Z,1293.75
2019-05-01T10:26:55.235Z,2188.12
2019-05-01T10:27:54.178Z,3093.75
2019-05-01T10:28:53.322Z,3307.50
2019-05-01T10:29:57.010Z,3268.12
2019-05-01T10:30:54.167Z,3223.12
2019-05-01T10:31:53.139Z,3335.62
2019-05-01T10:32:57.870Z,3324.38
2019-05-01T10:33:54.127Z,3268.12
2019-05-01T10:34:53.111Z,3313.12
2019-05-01T10:35:53.105Z,3352.50
2019-05-01T10:36:54.536Z,3341.25
2019-05-01T10:37:53.076Z,3352.50
2019-05-01T10:38:53.076Z,3307.50
2019-05-01T10:39:54.119Z,3391.88
2019-05-01T10:40:53.065Z,3465.00
2019-05-01T10:41:53.039Z,3397.50
2019-05-01T10:42:53.025Z,3465.00
2019-05-01T10:43:53.032Z,3436.88
2019-05-01T10:44:53.015Z,3234.38
2019-05-01T10:45:52.993Z,3206.25
2019-05-01T10:46:53.036Z,3358.12
2019-05-01T10:47:52.980Z,3403.12
2019-05-01T10:48:52.985Z,3465.00
2019-05-01T10:49:52.954Z,3414.38
2019-05-01T10:50:52.944Z,3448.12
2019-05-01T10:51:52.934Z,3391.88
2019-05-01T10:52:52.967Z,3341.25
2019-05-01T10:53:52.930Z,3448.12
2019-05-01T10:54:52.927Z,3526.88
2019-05-01T10:55:52.900Z,3532.50
2019-05-01T10:56:52.886Z,3420.00
2019-05-01T10:57:52.874Z,3386.25
2019-05-01T10:58:52.926Z,3335.62
2019-05-01T10:59:52.869Z,3301.88
2019-05-01T11:00:52.846Z,3380.62
2019-05-01T11:01:52.831Z,3448.12
2019-05-01T11:02:52.826Z,3465.00
2019-05-01T11:03:52.811Z,3375.00
2019-05-01T11:04:52.836Z,3408.75
2019-05-01T11:05:56.225Z,3470.62
2019-05-01T11:06:52.780Z,3459.38
2019-05-01T11:07:52.771Z,3611.25
2019-05-01T11:08:52.767Z,3622.50
2019-05-01T11:09:52.758Z,3566.25
2019-05-01T11:10:52.796Z,3453.75
2019-05-01T11:11:52.729Z,3420.00
2019-05-01T11:12:52.719Z,3436.88
2019-05-01T11:13:52.737Z,3453.75
2019-05-01T11:14:52.718Z,3391.88
2019-05-01T11:15:52.689Z,3380.62
2019-05-01T11:16:52.780Z,3425.62
2019-05-01T11:17:52.721Z,3448.12
2019-05-01T11:18:52.761Z,3403.12
2019-05-01T11:19:52.662Z,3481.88
2019-05-01T11:20:52.641Z,3594.38
2019-05-01T11:21:52.630Z,3566.25
2019-05-01T11:22:52.622Z,3566.25
2019-05-01T11:23:52.615Z,3436.88
2019-05-01T11:24:52.642Z,3470.62
2019-05-01T11:25:52.630Z,3594.38
2019-05-01T11:26:52.589Z,3532.50
2019-05-01T11:27:52.572Z,3515.62
2019-05-01T11:28:52.561Z,3481.88
2019-05-01T11:29:52.594Z,3487.50
2019-05-01T11:30:52.606Z,3526.88
2019-05-01T11:31:52.536Z,3436.88
2019-05-01T11:32:52.525Z,3375.00
2019-05-01T11:33:52.526Z,3425.62
2019-05-01T11:34:52.543Z,3465.00
2019-05-01T11:35:52.527Z,3510.00
2019-05-01T11:36:52.480Z,3549.38
2019-05-01T11:37:52.472Z,3560.62
2019-05-01T11:38:52.461Z,3498.75
2019-05-01T11:39:52.463Z,3487.50
2019-05-01T11:40:52.451Z,3543.75
2019-05-01T11:41:52.447Z,3481.88
2019-05-01T11:42:52.421Z,3543.75
2019-05-01T11:43:52.414Z,3628.12
2019-05-01T11:44:52.454Z,3521.25
2019-05-01T11:45:52.403Z,3420.00
2019-05-01T11:46:52.393Z,3397.50
2019-05-01T11:47:52.397Z,3515.62
2019-05-01T11:48:52.362Z,3560.62
2019-05-01T11:49:52.352Z,3605.62
2019-05-01T11:50:52.359Z,3566.25
2019-05-01T11:51:52.333Z,3504.38
2019-05-01T11:52:52.321Z,3431.25
2019-05-01T11:53:52.344Z,3296.25
2019-05-01T11:54:52.308Z,3251.25
2019-05-01T11:55:52.301Z,3211.88
2019-05-01T11:56:52.287Z,3335.62
2019-05-01T11:57:52.271Z,3583.12
2019-05-01T11:58:52.260Z,3611.25
2019-05-01T11:59:52.328Z,3470.62
2019-05-01T12:00:52.251Z,3414.38
2019-05-01T12:01:52.234Z,3465.00
2019-05-01T12:02:52.222Z,3391.88
2019-05-01T12:03:52.211Z,3363.75
2019-05-01T12:04:52.202Z,3386.25
2019-05-01T12:05:52.234Z,3442.50
2019-05-01T12:06:52.184Z,3391.88
2019-05-01T12:07:52.175Z,3465.00
2019-05-01T12:08:52.167Z,3543.75
2019-05-01T12:09:52.157Z,3476.25
2019-05-01T12:10:52.157Z,3431.25
2019-05-01T12:11:52.185Z,3459.38
2019-05-01T12:12:52.127Z,3408.75
2019-05-01T12:13:52.133Z,3341.25
2019-05-01T12:14:52.110Z,3358.12
2019-05-01T12:15:52.124Z,3403.12
2019-05-01T12:16:52.104Z,3487.50
2019-05-01T12:17:52.108Z,3493.12
2019-05-01T12:18:52.072Z,3380.62
2019-05-01T12:19:52.085Z,3369.38
2019-05-01T12:20:52.055Z,3397.50
2019-05-01T12:21:52.059Z,3436.88
2019-05-01T12:22:52.038Z,3436.88
2019-05-01T12:23:52.051Z,3397.50
2019-05-01T12:24:52.018Z,3330.00
2019-05-01T12:25:52.010Z,3296.25
2019-05-01T12:26:52.010Z,3234.38
2019-05-01T12:27:51.992Z,3262.50
2019-05-01T12:28:52.002Z,3307.50
2019-05-01T12:29:52.040Z,3245.62
2019-05-01T12:30:51.963Z,3273.75
2019-05-01T12:31:51.973Z,3301.88
2019-05-01T12:32:51.944Z,3290.62
2019-05-01T12:33:51.935Z,3313.12
2019-05-01T12:34:51.924Z,3301.88
2019-05-01T12:35:51.927Z,3285.00
2019-05-01T12:36:51.956Z,3273.75
2019-05-01T12:37:51.895Z,3307.50